createdAt,value
2018-12-14T00:06:40.230Z,6.70
2018-12-14T00:10:44.349Z,6.65
2018-12-14T00:14:48.546Z,6.79
2018-12-14T00:18:52.697Z,6.82
2018-12-14T00:22:56.839Z,6.99
2018-12-14T00:27:01.041Z,7.02
2018-12-14T00:31:05.145Z,6.89
2018-12-14T00:35:09.302Z,6.80
2018-12-14T00:39:13.373Z,6.91
2018-12-14T00:43:17.470Z,6.80
2018-12-14T00:47:21.679Z,6.57
2018-12-14T00:51:25.760Z,6.52
2018-12-14T00:55:29.906Z,6.54
2018-12-14T00:59:33.986Z,6.60
2018-12-14T01:03:38.091Z,6.35
2018-12-14T01:07:42.253Z,6.45
2018-12-14T01:11:46.341Z,6.45
2018-12-14T01:15:50.442Z,6.33
2018-12-14T01:19:54.597Z,6.43
2018-12-14T01:23:58.700Z,6.45
2018-12-14T01:28:02.853Z,6.56
2018-12-14T01:32:06.977Z,6.55
2018-12-14T01:36:11.049Z,6.70
2018-12-14T01:40:15.162Z,6.74
2018-12-14T01:44:19.313Z,6.85
2018-12-14T01:48:23.429Z,7.01
2018-12-14T01:52:27.818Z,6.93
2018-12-14T01:56:31.939Z,6.78
2018-12-14T02:00:36.082Z,6.85
2018-12-14T02:04:40.189Z,6.86
2018-12-14T02:08:44.271Z,7.05
2018-12-14T02:12:48.355Z,7.01
2018-12-14T02:16:52.551Z,7.03
2018-12-14T02:20:56.805Z,6.74
2018-12-14T02:25:00.849Z,6.86
2018-12-14T02:29:05.025Z,6.91
2018-12-14T02:33:09.337Z,6.94
2018-12-14T02:37:13.486Z,6.67
2018-12-14T02:41:17.569Z,6.47
2018-12-14T02:45:22.667Z,6.53
2018-12-14T02:49:26.801Z,6.75
2018-12-14T02:53:30.885Z,6.78
2018-12-14T02:57:34.968Z,6.67
2018-12-14T03:01:39.139Z,6.79
2018-12-14T03:05:43.281Z,6.51
2018-12-14T03:09:47.361Z,6.39
2018-12-14T03:13:51.503Z,6.58
2018-12-14T03:17:55.655Z,6.67
2018-12-14T03:21:59.761Z,6.59
2018-12-14T03:26:03.825Z,6.58
2018-12-14T03:30:08.739Z,6.43
2018-12-14T03:34:13.149Z,6.20
2018-12-14T03:38:17.226Z,6.24
2018-12-14T03:42:21.364Z,5.96
2018-12-14T03:46:25.634Z,5.68
2018-12-14T03:50:29.840Z,5.64
2018-12-14T03:54:33.907Z,5.75
2018-12-14T03:58:38.056Z,5.99
2018-12-14T04:02:42.194Z,6.24
2018-12-14T04:06:46.266Z,6.00
2018-12-14T04:10:50.349Z,5.84
2018-12-14T04:14:54.478Z,5.76
2018-12-14T04:18:58.698Z,5.70
2018-12-14T04:23:02.756Z,5.72
2018-12-14T04:27:06.946Z,5.86
2018-12-14T04:31:11.062Z,6.01
2018-12-14T04:35:15.173Z,6.01
2018-12-14T04:39:19.266Z,6.22
2018-12-14T04:43:24.849Z,6.11
2018-12-14T04:47:28.932Z,6.34
2018-12-14T04:51:33.007Z,6.52
2018-12-14T04:55:37.081Z,6.55
2018-12-14T04:59:41.258Z,6.53
2018-12-14T05:03:45.353Z,6.28
2018-12-14T05:07:49.417Z,6.08
2018-12-14T05:11:53.530Z,6.04
2018-12-14T05:15:57.586Z,5.86
2018-12-14T05:20:01.675Z,5.96
2018-12-14T05:24:05.897Z,6.26
2018-12-14T05:28:10.008Z,6.21
2018-12-14T05:32:14.167Z,6.10
2018-12-14T05:36:18.276Z,6.07
2018-12-14T05:40:22.390Z,6.05
2018-12-14T05:44:26.488Z,5.92
2018-12-14T05:48:30.620Z,6.04
2018-12-14T05:52:34.733Z,5.84
2018-12-14T05:56:38.881Z,5.96
2018-12-14T06:00:42.979Z,6.05
2018-12-14T06:04:47.077Z,6.19
2018-12-14T06:08:51.166Z,6.00
2018-12-14T06:12:55.245Z,5.92
2018-12-14T06:16:59.391Z,5.99
2018-12-14T06:21:03.480Z,6.22
2018-12-14T06:25:07.698Z,6.02
2018-12-14T06:29:11.864Z,6.03
2018-12-14T06:33:15.953Z,6.02
2018-12-14T06:37:20.397Z,6.15
2018-12-14T06:41:24.537Z,5.59
2018-12-14T06:45:28.633Z,5.51
2018-12-14T06:49:32.698Z,5.47
2018-12-14T06:53:36.784Z,5.59
2018-12-14T06:57:40.874Z,5.69
2018-12-14T07:01:44.951Z,5.66
2018-12-14T07:05:49.093Z,5.62
2018-12-14T07:09:53.179Z,5.82
2018-12-14T07:13:57.237Z,5.87
2018-12-14T07:18:01.331Z,6.08
2018-12-14T07:22:05.649Z,6.10
2018-12-14T07:26:09.765Z,6.15
2018-12-14T07:30:14.834Z,6.23
2018-12-14T07:34:18.927Z,6.14
2018-12-14T07:38:23.049Z,6.06
2018-12-14T07:42:27.171Z,6.03
2018-12-14T07:46:31.254Z,6.14
2018-12-14T07:50:35.426Z,5.85
2018-12-14T07:54:39.489Z,5.70
2018-12-14T07:58:43.896Z,5.50
2018-12-14T08:02:48.102Z,5.33
2018-12-14T08:06:52.233Z,5.29
2018-12-14T08:10:56.320Z,5.03
2018-12-14T08:15:00.465Z,5.17
2018-12-14T08:19:04.553Z,5.09
2018-12-14T08:23:08.687Z,5.07
2018-12-14T08:27:12.769Z,4.93
2018-12-14T08:31:16.836Z,4.99
2018-12-14T08:35:20.937Z,4.93
2018-12-14T08:39:25.114Z,5.07
2018-12-14T08:43:29.779Z,5.14
2018-12-14T08:47:33.859Z,5.29
2018-12-14T08:51:37.962Z,5.38
2018-12-14T08:55:42.050Z,5.45
2018-12-14T08:59:46.129Z,5.47
2018-12-14T09:03:50.251Z,5.66
2018-12-14T09:07:54.374Z,5.59
2018-12-14T09:11:59.110Z,5.95
2018-12-14T09:16:04.185Z,6.03
2018-12-14T09:20:08.613Z,6.04
2018-12-14T09:24:12.707Z,5.95
2018-12-14T09:28:16.837Z,6.01
2018-12-14T09:32:20.925Z,5.68
2018-12-14T09:36:25.252Z,5.51
2018-12-14T09:40:29.506Z,5.69
2018-12-14T09:44:33.619Z,5.85
2018-12-14T09:48:37.741Z,5.80
2018-12-14T09:52:41.814Z,5.53
2018-12-14T09:56:45.891Z,5.66
2018-12-14T10:00:49.969Z,5.70
2018-12-14T10:04:54.095Z,5.61
2018-12-14T10:08:58.171Z,5.60
2018-12-14T10:13:02.270Z,5.82
2018-12-14T10:17:07.459Z,5.81
2018-12-14T10:21:11.546Z,5.87
2018-12-14T10:25:15.632Z,5.92
2018-12-14T10:29:19.800Z,5.87
2018-12-14T10:33:23.856Z,5.83
2018-12-14T10:37:27.949Z,5.94
2018-12-14T10:41:32.018Z,6.00
2018-12-14T10:45:36.445Z,6.11
2018-12-14T10:49:40.545Z,6.21
2018-12-14T10:53:44.601Z,6.14
2018-12-14T10:57:49.061Z,5.93
2018-12-14T11:01:56.636Z,5.93
2018-12-14T11:06:00.854Z,6.04
2018-12-14T11:10:07.729Z,6.25
2018-12-14T11:14:14.114Z,6.34
2018-12-14T11:18:17.836Z,6.37
2018-12-14T11:22:21.949Z,6.37
2018-12-14T11:26:26.233Z,6.07
2018-12-14T11:30:30.398Z,5.83
2018-12-14T11:34:34.575Z,5.88
2018-12-14T11:38:38.670Z,5.80
2018-12-14T11:42:42.753Z,5.92
2018-12-14T11:46:46.927Z,5.93
2018-12-14T11:50:51.013Z,5.87
2018-12-14T11:54:55.097Z,5.85
2018-12-14T11:58:59.189Z,5.93
2018-12-14T12:03:03.261Z,6.00
2018-12-14T12:07:07.361Z,5.74
2018-12-14T12:11:11.521Z,5.87
2018-12-14T12:19:50.552Z,5.84
2018-12-14T12:23:55.503Z,6.02
2018-12-14T12:27:59.905Z,6.04
2018-12-14T12:32:03.985Z,6.21
2018-12-14T12:36:08.143Z,6.29
2018-12-14T12:40:12.288Z,6.22
2018-12-14T12:44:16.433Z,6.04
2018-12-14T12:48:20.545Z,6.03
2018-12-14T12:52:24.629Z,6.06
2018-12-14T12:56:29.084Z,5.86
2018-12-14T13:00:33.178Z,5.71
2018-12-14T13:04:38.859Z,5.51
2018-12-14T13:08:43.116Z,5.61
2018-12-14T13:12:47.290Z,5.73
2018-12-14T13:16:51.405Z,5.83
2018-12-14T13:20:55.492Z,5.74
2018-12-14T13:24:59.572Z,5.57
2018-12-14T13:29:03.779Z,5.64
2018-12-14T13:33:08.225Z,5.72
2018-12-14T13:37:12.315Z,6.15
2018-12-14T13:41:16.453Z,6.34
2018-12-14T13:45:21.599Z,6.19
2018-12-14T13:49:25.788Z,5.86
2018-12-14T13:53:29.942Z,5.77
2018-12-14T13:57:34.029Z,5.91
2018-12-14T14:01:38.164Z,5.98
2018-12-14T14:05:42.275Z,6.44
2018-12-14T14:09:46.410Z,6.59
2018-12-14T14:13:50.561Z,6.29
2018-12-14T14:17:54.645Z,6.21
2018-12-14T14:21:58.733Z,6.35
2018-12-14T14:26:02.826Z,6.58
2018-12-14T14:30:08.581Z,6.39
2018-12-14T14:34:12.665Z,6.25
2018-12-14T14:38:17.754Z,6.14
2018-12-14T14:42:21.831Z,5.95
2018-12-14T14:46:25.923Z,5.78
2018-12-14T14:50:30.105Z,5.59
2018-12-14T14:54:39.759Z,5.43
2018-12-14T14:58:40.213Z,5.30
2018-12-14T15:02:44.294Z,5.28
2018-12-14T15:06:48.429Z,5.40
2018-12-14T15:10:52.526Z,5.57
2018-12-14T15:14:56.614Z,5.35
2018-12-14T15:19:00.678Z,5.43
2018-12-14T15:23:04.760Z,5.47
2018-12-14T15:27:08.967Z,5.71
2018-12-14T15:31:13.195Z,5.75
2018-12-14T15:35:17.323Z,5.55
2018-12-14T15:39:21.399Z,5.39
2018-12-14T15:43:25.709Z,5.29
2018-12-14T15:47:29.790Z,5.13
2018-12-14T15:51:33.868Z,5.15
2018-12-14T15:55:38.017Z,5.15
2018-12-14T15:59:42.256Z,5.39
2018-12-14T16:03:46.345Z,5.65
2018-12-14T16:07:50.421Z,5.82
2018-12-14T16:11:54.566Z,5.78
2018-12-14T16:15:58.645Z,5.79
2018-12-14T16:20:03.086Z,5.54
2018-12-14T16:24:07.263Z,5.13
2018-12-14T16:28:11.450Z,4.96
2018-12-14T16:32:15.541Z,4.83
2018-12-14T16:36:19.606Z,4.42
2018-12-14T16:40:23.694Z,4.64
2018-12-14T16:44:27.830Z,4.69
2018-12-14T16:48:31.890Z,4.97
2018-12-14T16:52:36.048Z,5.00
2018-12-14T16:56:40.132Z,4.62
2018-12-14T17:00:44.292Z,4.72
2018-12-14T17:04:48.671Z,4.67
2018-12-14T17:08:52.754Z,4.50
2018-12-14T17:12:56.851Z,4.43
2018-12-14T17:17:00.934Z,4.44
2018-12-14T17:21:05.037Z,4.57
2018-12-14T17:25:09.101Z,4.79
2018-12-14T17:29:13.170Z,4.75
2018-12-14T17:33:17.261Z,4.83
2018-12-14T17:37:21.350Z,5.15
2018-12-14T17:41:25.516Z,5.53
2018-12-14T17:45:29.637Z,5.55
2018-12-14T17:49:33.773Z,5.60
2018-12-14T17:53:39.690Z,5.37
2018-12-14T17:57:43.787Z,5.49
2018-12-14T18:01:47.941Z,5.72
2018-12-14T18:05:52.120Z,5.64
2018-12-14T18:14:20.226Z,5.49
2018-12-14T18:18:24.309Z,5.66
2018-12-14T18:22:28.408Z,5.77
2018-12-14T18:26:32.569Z,5.66
2018-12-14T18:30:36.706Z,5.43
2018-12-14T18:34:40.823Z,5.24
2018-12-14T18:38:44.919Z,5.21
2018-12-14T18:42:49.013Z,5.22
2018-12-14T18:46:53.091Z,5.24
2018-12-14T18:50:57.619Z,4.93
2018-12-14T18:55:01.720Z,4.68
2018-12-14T18:59:06.020Z,4.73
2018-12-14T19:03:10.125Z,4.96
2018-12-14T19:07:14.231Z,4.86
2018-12-14T19:11:18.450Z,4.83
2018-12-14T19:15:22.560Z,4.77
2018-12-14T19:19:26.739Z,4.80
2018-12-14T19:23:31.874Z,4.63
2018-12-14T19:27:36.063Z,3.93
2018-12-14T19:31:40.184Z,4.01
2018-12-14T19:35:44.377Z,3.86
2018-12-14T19:39:48.454Z,3.96
2018-12-14T19:43:52.580Z,3.97
2018-12-14T19:47:56.687Z,4.07
2018-12-14T19:52:00.879Z,4.23
2018-12-14T19:56:05.029Z,4.05
2018-12-14T20:00:12.393Z,3.96
2018-12-14T20:04:16.485Z,3.70
2018-12-14T20:08:20.918Z,3.36
2018-12-14T20:12:25.035Z,3.20
2018-12-14T20:16:29.110Z,3.45
2018-12-14T20:20:33.238Z,3.70
2018-12-14T20:24:38.441Z,3.62
2018-12-14T20:28:42.621Z,3.71
2018-12-14T20:32:46.700Z,3.41
2018-12-14T20:36:50.836Z,3.75
2018-12-14T20:40:54.946Z,3.44
2018-12-14T20:44:59.047Z,3.35
2018-12-14T20:49:03.126Z,3.60
2018-12-14T20:53:07.209Z,3.50
2018-12-14T20:57:11.319Z,3.69
2018-12-14T21:01:15.402Z,3.74
2018-12-14T21:05:19.502Z,3.97
2018-12-14T21:09:23.610Z,4.11
2018-12-14T21:13:27.744Z,3.88
2018-12-14T21:17:31.836Z,3.61
2018-12-14T21:21:35.970Z,3.62
2018-12-14T21:25:40.138Z,3.40
2018-12-14T21:29:44.218Z,3.40
2018-12-14T21:33:48.302Z,3.78
2018-12-14T21:37:52.443Z,3.91
2018-12-14T21:41:56.535Z,4.04
2018-12-14T21:46:00.633Z,4.30
2018-12-14T21:54:22.457Z,4.67
2018-12-14T21:58:48.490Z,4.81
2018-12-14T22:02:52.619Z,4.75
2018-12-14T22:11:17.513Z,4.44
2018-12-14T22:15:22.254Z,4.15
2018-12-14T22:19:48.259Z,4.08
2018-12-14T22:23:52.417Z,4.15
2018-12-14T22:32:11.494Z,4.15
2018-12-14T22:36:15.596Z,3.97
2018-12-14T22:40:47.425Z,3.95
2018-12-14T22:44:52.447Z,3.66
2018-12-14T22:48:56.575Z,3.78
2018-12-14T22:53:00.649Z,3.86
2018-12-14T22:57:04.755Z,3.83
2018-12-14T23:05:49.285Z,3.35
2018-12-14T23:09:53.403Z,3.81
2018-12-14T23:13:58.461Z,4.03
2018-12-14T23:18:02.564Z,4.12
2018-12-14T23:22:06.816Z,4.19
2018-12-14T23:26:16.468Z,4.15
2018-12-14T23:30:20.611Z,4.20
2018-12-14T23:34:48.213Z,4.30
2018-12-14T23:38:52.375Z,4.40
2018-12-14T23:42:56.629Z,4.52
2018-12-14T23:47:00.740Z,4.11
2018-12-14T23:51:04.839Z,4.07
2018-12-14T23:55:08.980Z,3.67
2018-12-14T23:59:13.081Z,3.48
